Time;durP1;ratioP1;P1;durP2;ratioP2;P2;SDS_P1;SDS_P2;PMS_P1;PMS_P2;Temp;Humidity;BMP_temperature;BMP_pressure;BME280_temperature;BME280_humidity;BME280_pressure;Samples;Min_cycle;Max_cycle;Signal;HPM_P1;HPM_P2
2022/07/08 00:00:08;;;;;;;3.25;2.08;;;;;;;18.21;75.38;100962.00;2078631;28;20034;-67
2022/07/08 00:01:18;;;;;;;5.25;2.00;;;;;;;18.20;75.43;100959.59;2072339;28;20046;-68
2022/07/08 00:02:22;;;;;;;2.63;2.00;;;;;;;18.21;75.29;100962.00;2080196;28;20041;-67
2022/07/08 00:03:26;;;;;;;2.90;2.00;;;;;;;18.22;75.11;100963.63;2061498;28;20046;-67
2022/07/08 00:04:28;;;;;;;3.78;1.70;;;;;;;18.23;75.18;100967.13;2063389;28;20113;-68
2022/07/08 00:05:30;;;;;;;7.13;2.10;;;;;;;18.23;75.23;100958.97;2078914;28;20454;-67
2022/07/08 00:06:35;;;;;;;4.93;2.10;;;;;;;18.22;75.11;100973.66;2078868;28;20076;-68
2022/07/08 00:07:38;;;;;;;3.13;2.10;;;;;;;18.21;75.17;100967.44;2078873;28;20041;-67
2022/07/08 00:08:40;;;;;;;3.75;1.83;;;;;;;18.22;75.12;100968.22;2079072;28;20044;-66
2022/07/08 00:09:43;;;;;;;2.17;1.90;;;;;;;18.21;75.16;100970.16;2087640;28;20052;-67
2022/07/08 00:10:47;;;;;;;3.17;2.05;;;;;;;18.21;75.24;100974.81;2078837;28;20425;-66
2022/07/08 00:11:51;;;;;;;2.65;1.70;;;;;;;18.21;75.25;100972.88;2079713;28;20462;-66
2022/07/08 00:12:55;;;;;;;5.47;2.20;;;;;;;18.22;75.25;100971.78;2078775;28;20509;-65
2022/07/08 00:14:05;;;;;;;;;;;;;;;18.22;75.22;100969.06;2080743;28;20054;-68
2022/07/08 00:15:11;;;;;;;2.17;1.98;;;;;;;18.23;75.28;100969.84;2078849;28;19917;-68
2022/07/08 00:16:15;;;;;;;5.22;2.10;;;;;;;18.24;75.18;100977.69;2080779;28;20484;-65
2022/07/08 00:17:17;;;;;;;3.22;1.90;;;;;;;18.24;75.29;100969.53;2087082;28;20052;-65
2022/07/08 00:18:29;;;;;;;4.70;2.13;;;;;;;18.23;75.19;100975.28;2071602;28;20453;-65
2022/07/08 00:19:30;;;;;;;2.63;2.10;;;;;;;18.22;75.24;100974.50;2081934;28;20042;-68
2022/07/08 00:20:36;;;;;;;3.85;2.00;;;;;;;18.22;75.23;100974.50;2095238;28;20056;-66
2022/07/08 00:21:45;;;;;;;3.83;2.20;;;;;;;18.21;75.40;100972.88;2103653;28;20052;-66
2022/07/08 00:22:51;;;;;;;3.58;2.20;;;;;;;18.21;75.39;100977.53;2101454;28;20063;-68
2022/07/08 00:23:53;;;;;;;3.83;1.85;;;;;;;18.20;75.32;100976.72;2087530;28;20067;-68
2022/07/08 00:24:59;;;;;;;3.30;2.15;;;;;;;18.20;75.43;100974.00;2087070;28;20048;-67
2022/07/08 00:26:01;;;;;;;2.88;2.00;;;;;;;18.21;75.41;100981.03;2086273;28;20037;-67
2022/07/08 00:27:03;;;;;;;2.92;2.20;;;;;;;18.20;75.35;100984.91;2085976;28;20056;-67
2022/07/08 00:28:08;;;;;;;4.10;2.30;;;;;;;18.21;75.30;100983.75;2070496;28;20053;-67
2022/07/08 00:29:10;;;;;;;3.53;2.13;;;;;;;18.20;75.29;100987.63;2074237;28;20421;-68
2022/07/08 00:30:12;;;;;;;2.58;2.15;;;;;;;18.20;75.24;100976.72;2079014;28;20045;-67
2022/07/08 00:31:16;;;;;;;5.55;2.15;;;;;;;18.21;75.30;100974.81;2087023;28;20582;-64
2022/07/08 00:32:19;;;;;;;2.60;2.10;;;;;;;18.20;75.17;100982.19;2086832;28;20047;-65
2022/07/08 00:33:26;;;;;;;4.95;2.17;;;;;;;18.20;75.42;100975.94;2079289;28;20038;-65
2022/07/08 00:34:31;;;;;;;4.88;2.50;;;;;;;18.21;75.25;100977.53;2071441;28;20061;-65
2022/07/08 00:35:33;;;;;;;4.00;2.20;;;;;;;18.21;75.12;100972.88;2080246;28;20053;-67
2022/07/08 00:36:38;;;;;;;5.30;2.50;;;;;;;18.21;75.16;100972.88;2078904;28;20045;-64
2022/07/08 00:37:45;;;;;;;6.07;2.33;;;;;;;18.20;75.12;100976.72;2079887;28;20045;-66
2022/07/08 00:38:47;;;;;;;2.80;1.90;;;;;;;18.20;75.13;100976.72;2079737;28;20501;-66
2022/07/08 00:39:49;;;;;;;5.32;2.28;;;;;;;18.20;75.15;100974.00;2070793;28;20052;-66
2022/07/08 00:40:56;;;;;;;5.80;2.20;;;;;;;18.19;75.19;100975.13;2079958;28;20033;-65
2022/07/08 00:41:58;;;;;;;4.47;2.50;;;;;;;18.19;75.15;100964.25;2087042;28;20037;-68
2022/07/08 00:43:00;;;;;;;4.13;2.28;;;;;;;18.20;75.21;100970.50;2087265;28;20057;-64
2022/07/08 00:44:05;;;;;;;3.10;2.08;;;;;;;18.20;75.15;100970.50;2086531;28;20056;-65
2022/07/08 00:45:10;;;;;;;7.53;2.72;;;;;;;18.20;75.16;100965.03;2087053;28;20830;-65
2022/07/08 00:46:14;;;;;;;7.07;2.28;;;;;;;18.19;75.18;100969.69;2078415;28;20041;-65
2022/07/08 00:47:19;;;;;;;4.80;2.45;;;;;;;18.20;75.02;100968.56;2071938;28;20061;-66
2022/07/08 00:48:21;;;;;;;4.30;2.38;;;;;;;18.21;75.11;100969.38;2087415;28;20298;-69
2022/07/08 00:49:28;;;;;;;3.28;1.98;;;;;;;18.20;75.06;100979.44;2095324;28;20036;-67
2022/07/08 00:50:33;;;;;;;3.50;2.10;;;;;;;18.20;75.05;100975.94;2080053;28;20041;-67
2022/07/08 00:51:39;;;;;;;5.50;2.50;;;;;;;18.19;75.19;100969.69;2081111;28;20049;-67
2022/07/08 00:52:45;;;;;;;7.00;2.22;;;;;;;18.19;75.04;100968.88;2089036;28;20087;-67
2022/07/08 00:53:55;;;;;;;2.80;2.20;;;;;;;18.20;74.96;100965.03;2072087;28;20061;-67
2022/07/08 00:55:01;;;;;;;5.10;2.35;;;;;;;18.19;74.70;100972.41;2066776;28;20501;-68
2022/07/08 00:56:07;;;;;;;3.03;1.95;;;;;;;18.19;75.05;100969.69;2081150;28;20041;-68
2022/07/08 00:57:14;;;;;;;2.70;2.10;;;;;;;18.19;75.00;100969.69;2088304;28;20049;-67
2022/07/08 00:58:21;;;;;;;3.35;2.15;;;;;;;18.19;75.33;100972.41;2088375;28;20059;-67
2022/07/08 00:59:27;;;;;;;3.25;2.28;;;;;;;18.18;75.19;100965.34;2089192;28;20052;-66
2022/07/08 01:00:29;;;;;;;4.30;2.15;;;;;;;18.16;75.02;100964.88;2080320;28;20099;-67
2022/07/08 01:01:34;;;;;;;3.65;2.33;;;;;;;18.15;75.15;100967.91;2080652;28;20065;-66
2022/07/08 01:02:55;;;;;;;4.20;2.00;;;;;;;18.15;75.26;100966.00;2081852;28;20045;-67
2022/07/08 01:03:57;;;;;;;4.18;2.22;;;;;;;18.16;75.33;100964.88;2074051;28;20053;-67
2022/07/08 01:05:00;;;;;;;4.50;2.17;;;;;;;18.16;75.30;100973.06;2072242;28;20367;-66
2022/07/08 01:06:04;;;;;;;4.25;2.30;;;;;;;18.12;75.42;100972.06;2088708;28;20054;-67
2022/07/08 01:07:07;;;;;;;5.95;2.30;;;;;;;18.14;75.43;100975.28;2080152;28;20048;-67
2022/07/08 01:08:08;;;;;;;4.15;2.38;;;;;;;18.15;75.44;100970.63;2072164;28;20034;-68
2022/07/08 01:09:15;;;;;;;3.55;2.22;;;;;;;18.14;75.45;100972.56;2079781;28;20113;-68
2022/07/08 01:10:17;;;;;;;4.38;2.45;;;;;;;18.14;75.48;100975.28;2080623;28;20045;-67
2022/07/08 01:11:20;;;;;;;5.03;2.65;;;;;;;18.14;75.40;100978.00;2088940;28;20041;-68
2022/07/08 01:12:26;;;;;;;4.38;2.60;;;;;;;18.15;75.52;100976.88;2088395;28;20033;-67
2022/07/08 01:13:29;;;;;;;4.38;2.47;;;;;;;18.15;75.34;100978.81;2088369;28;20057;-68
2022/07/08 01:14:32;;;;;;;3.47;2.35;;;;;;;18.15;75.41;100976.88;2088372;28;20048;-69
2022/07/08 01:15:35;;;;;;;4.35;2.65;;;;;;;18.16;75.64;100983.94;2088121;28;20849;-68
2022/07/08 01:16:38;;;;;;;3.75;2.40;;;;;;;18.15;75.51;100979.59;2087767;28;20049;-68
2022/07/08 01:17:41;;;;;;;4.75;2.95;;;;;;;18.15;75.51;100979.59;2087509;28;20049;-68
2022/07/08 01:18:45;;;;;;;5.22;2.50;;;;;;;18.14;75.62;100978.00;2088023;28;20056;-68
2022/07/08 01:19:48;;;;;;;5.05;2.50;;;;;;;18.14;75.50;100972.56;2096532;28;20048;-68
2022/07/08 01:20:51;;;;;;;4.32;2.35;;;;;;;18.14;75.51;100969.03;2087701;28;20056;-68
2022/07/08 01:21:55;;;;;;;3.00;2.40;;;;;;;18.14;75.45;100966.31;2079507;28;20053;-68
2022/07/08 01:22:57;;;;;;;3.22;2.40;;;;;;;18.11;75.60;100973.19;2080554;28;20046;-69
2022/07/08 01:24:01;;;;;;;3.92;2.70;;;;;;;18.12;75.69;100974.78;2066640;28;20164;-64
2022/07/08 01:25:06;;;;;;;5.32;2.55;;;;;;;18.05;76.29;100974.47;2064225;28;20042;-68
2022/07/08 01:26:12;;;;;;;5.15;2.60;;;;;;;18.06;76.29;100970.63;2064248;28;20042;-68
2022/07/08 01:27:15;;;;;;;6.03;2.75;;;;;;;18.08;76.11;100968.41;2072514;28;20517;-69
2022/07/08 01:28:20;;;;;;;3.58;2.67;;;;;;;18.08;75.94;100971.13;2088577;28;20049;-68
2022/07/08 01:29:23;;;;;;;5.00;2.88;;;;;;;18.11;75.97;100964.25;2076664;28;20413;-68
2022/07/08 01:30:27;;;;;;;3.85;2.70;;;;;;;18.10;75.89;100965.38;2079912;28;20148;-68
2022/07/08 01:31:29;;;;;;;5.93;2.80;;;;;;;18.10;75.90;100971.59;2079466;28;20061;-69
2022/07/08 01:32:36;;;;;;;3.58;2.60;;;;;;;18.09;75.84;100970.00;2079800;28;20076;-68
2022/07/08 01:33:41;;;;;;;4.18;2.78;;;;;;;18.11;75.77;100973.19;2081031;28;20052;-68
2022/07/08 01:34:48;;;;;;;6.30;2.63;;;;;;;18.10;75.86;100971.59;2080038;28;20053;-68
2022/07/08 01:35:50;;;;;;;4.07;2.80;;;;;;;18.09;75.79;100967.25;2080896;28;20045;-68
2022/07/08 01:36:53;;;;;;;4.82;3.00;;;;;;;18.09;75.86;100980.88;2088196;28;20072;-67
2022/07/08 01:38:01;;;;;;;5.30;2.92;;;;;;;18.07;75.86;100974.97;2088040;28;20564;-68
2022/07/08 01:39:04;;;;;;;5.38;2.88;;;;;;;18.06;75.94;100970.63;2088855;28;20044;-66
2022/07/08 01:40:11;;;;;;;6.90;3.10;;;;;;;18.07;76.04;100969.53;2088046;28;20099;-68
2022/07/08 01:41:18;;;;;;;4.53;2.67;;;;;;;18.07;75.90;100972.25;2081237;28;20048;-68
2022/07/08 01:42:21;;;;;;;4.22;2.88;;;;;;;18.06;75.97;100976.88;2088169;28;20080;-68
2022/07/08 01:43:28;;;;;;;6.32;2.85;;;;;;;18.06;75.96;100970.63;2088670;28;20060;-71
2022/07/08 01:44:32;;;;;;;4.05;2.35;;;;;;;18.07;76.00;100966.81;2088379;28;20040;-72
2022/07/08 01:45:35;;;;;;;5.43;2.70;;;;;;;18.07;75.97;100966.81;2088407;28;20049;-71
2022/07/08 01:46:44;;;;;;;4.30;2.78;;;;;;;18.07;76.04;100974.97;2087713;28;20044;-71
2022/07/08 01:47:45;;;;;;;3.60;2.60;;;;;;;18.06;75.96;100966.00;2087997;28;20049;-70
2022/07/08 01:48:52;;;;;;;5.90;2.70;;;;;;;18.07;75.88;100974.97;2080631;28;20034;-71
2022/07/08 01:49:55;;;;;;;4.97;2.85;;;;;;;18.08;75.99;100982.00;2080363;28;20045;-70
2022/07/08 01:51:00;;;;;;;4.25;2.58;;;;;;;18.08;75.90;100973.03;2089530;28;20068;-71
2022/07/08 01:52:05;;;;;;;4.68;2.50;;;;;;;18.07;75.96;100977.69;2096639;28;20041;-71
2022/07/08 01:53:12;;;;;;;5.25;3.17;;;;;;;18.07;76.04;100972.25;2097152;28;20028;-69
2022/07/08 01:54:14;;;;;;;6.20;2.90;;;;;;;18.06;76.09;100970.63;2088210;28;20048;-71
2022/07/08 01:55:20;;;;;;;3.47;2.97;;;;;;;18.07;76.02;100977.69;2088392;28;20060;-71
2022/07/08 01:56:24;;;;;;;4.40;3.08;;;;;;;18.08;75.88;100973.03;2088085;28;20060;-70
2022/07/08 01:57:26;;;;;;;7.45;3.00;;;;;;;18.07;76.01;100974.97;2062341;28;20549;-70
2022/07/08 01:58:31;;;;;;;4.18;2.60;;;;;;;18.06;75.85;100976.06;2064537;28;20057;-71
2022/07/08 01:59:33;;;;;;;5.43;2.80;;;;;;;18.07;76.05;100972.25;2079750;28;20536;-70
2022/07/08 02:00:37;;;;;;;4.95;2.72;;;;;;;18.06;75.99;100974.16;2079609;28;20044;-71
2022/07/08 02:01:41;;;;;;;4.75;2.75;;;;;;;18.06;76.06;100963.28;2081539;28;20045;-71
2022/07/08 02:02:44;;;;;;;5.63;3.20;;;;;;;18.07;76.07;100974.97;2079439;28;20417;-71
2022/07/08 02:03:46;;;;;;;5.32;3.15;;;;;;;18.08;75.97;100973.84;2081177;28;20053;-71
2022/07/08 02:04:49;;;;;;;7.45;2.97;;;;;;;18.09;75.92;100975.44;2097095;28;20052;-71
2022/07/08 02:05:54;;;;;;;5.88;3.17;;;;;;;18.08;76.08;100973.03;2087582;28;20120;-71
2022/07/08 02:06:59;;;;;;;2.92;2.50;;;;;;;18.08;76.07;100973.84;2088335;28;20048;-70
2022/07/08 02:08:03;;;;;;;5.45;2.75;;;;;;;18.07;75.98;100974.97;2096854;28;20044;-70
2022/07/08 02:09:05;;;;;;;4.05;2.55;;;;;;;18.08;75.99;100973.84;2096883;28;20044;-71
2022/07/08 02:10:10;;;;;;;5.50;2.67;;;;;;;18.08;76.09;100971.13;2079100;28;20089;-71
2022/07/08 02:12:35;;;;;;;6.55;3.20;;;;;;;18.08;76.24;100982.00;2086896;28;20404;-71
2022/07/08 02:13:37;;;;;;;6.63;3.63;;;;;;;18.08;76.21;100976.56;2071508;28;20076;-71
2022/07/08 02:14:42;;;;;;;4.45;2.90;;;;;;;18.08;76.13;100979.28;2064937;28;20054;-71
2022/07/08 02:15:45;;;;;;;6.47;3.38;;;;;;;18.07;76.25;100983.13;2079887;28;20500;-71
2022/07/08 02:16:48;;;;;;;5.20;2.95;;;;;;;18.09;76.18;100980.88;2093901;28;20087;-72
2022/07/08 02:18:14;;;;;;;5.18;3.05;;;;;;;18.08;76.24;100983.94;2097569;28;20052;-73
2022/07/08 02:19:19;;;;;;;6.30;2.70;;;;;;;18.06;76.30;100982.34;2105000;28;20042;-72
2022/07/08 02:20:25;;;;;;;5.03;2.90;;;;;;;18.09;76.25;100985.50;2073711;28;20522;-70
2022/07/08 02:21:27;;;;;;;5.97;3.00;;;;;;;18.07;76.26;100988.56;2064481;28;20050;-71
2022/07/08 02:22:31;;;;;;;5.20;2.83;;;;;;;18.07;76.33;100977.69;2071987;28;20060;-71
2022/07/08 02:23:35;;;;;;;4.40;2.88;;;;;;;18.08;76.32;100983.94;2075714;28;20252;-71
2022/07/08 02:24:44;;;;;;;5.65;3.22;;;;;;;18.08;76.18;100983.94;2080787;28;20392;-71
2022/07/08 02:25:46;;;;;;;4.80;2.78;;;;;;;18.06;76.35;100990.50;2090571;28;20036;-71
2022/07/08 02:26:49;;;;;;;5.45;3.00;;;;;;;18.08;76.23;100984.72;2080861;28;20482;-71
2022/07/08 02:27:52;;;;;;;6.00;2.88;;;;;;;18.05;76.28;100985.34;2081403;28;20049;-72
2022/07/08 02:28:54;;;;;;;4.03;2.88;;;;;;;18.05;76.40;100985.34;2088163;28;20048;-72
2022/07/08 02:29:57;;;;;;;5.60;2.53;;;;;;;18.04;76.49;100979.13;2072178;28;20046;-72
2022/07/08 02:31:03;;;;;;;6.93;3.38;;;;;;;18.05;76.39;100985.34;2081553;28;20394;-71
2022/07/08 02:32:08;;;;;;;7.70;3.67;;;;;;;18.06;76.36;100986.94;2072782;28;20052;-72
2022/07/08 02:33:10;;;;;;;7.70;3.20;;;;;;;18.05;76.43;100986.16;2050149;28;20502;-72
2022/07/08 02:34:16;;;;;;;7.57;2.92;;;;;;;18.05;76.40;100986.16;2066193;28;20418;-72
2022/07/08 02:35:20;;;;;;;4.60;2.83;;;;;;;18.05;76.45;100986.16;2086075;28;20044;-72
2022/07/08 02:36:25;;;;;;;5.28;3.28;;;;;;;18.07;76.36;100991.28;2089204;28;20040;-72
2022/07/08 02:37:30;;;;;;;6.18;2.88;;;;;;;18.08;76.22;100983.94;2089715;28;20503;-72
2022/07/08 02:38:33;;;;;;;4.55;2.75;;;;;;;18.08;76.38;100986.66;2088806;28;20053;-71
2022/07/08 02:39:38;;;;;;;5.82;2.60;;;;;;;18.08;76.32;100984.72;2090173;28;20045;-71
2022/07/08 02:40:40;;;;;;;3.42;2.47;;;;;;;18.08;76.33;100984.72;2089092;28;20052;-71
2022/07/08 02:41:42;;;;;;;7.15;3.25;;;;;;;18.09;76.55;100991.75;2072613;28;20044;-72
2022/07/08 02:42:47;;;;;;;2.90;2.47;;;;;;;18.09;76.24;100986.31;2075150;28;20510;-72
2022/07/08 02:43:48;;;;;;;4.13;2.55;;;;;;;18.09;76.22;100985.50;2072566;28;20038;-72
2022/07/08 02:44:54;;;;;;;6.05;2.72;;;;;;;18.08;76.31;100990.16;2065177;28;20046;-72
2022/07/08 02:45:57;;;;;;;5.95;2.75;;;;;;;18.08;76.20;100992.88;2066114;28;20038;-71
2022/07/08 02:47:01;;;;;;;4.95;2.85;;;;;;;18.09;76.25;100990.97;2072401;28;20092;-72
2022/07/08 02:48:05;;;;;;;5.75;2.55;;;;;;;18.08;76.22;100987.44;2089135;28;20104;-71
2022/07/08 02:49:08;;;;;;;6.97;2.92;;;;;;;18.07;76.26;100991.28;2089043;28;20365;-72
2022/07/08 02:50:14;;;;;;;4.43;2.85;;;;;;;18.08;76.39;100990.16;2089410;28;20028;-71
2022/07/08 02:51:20;;;;;;;5.15;2.97;;;;;;;18.09;76.26;100990.97;2088950;28;20029;-72
2022/07/08 02:52:23;;;;;;;5.03;2.90;;;;;;;18.09;76.26;100994.47;2073304;28;20038;-72
2022/07/08 02:53:28;;;;;;;4.82;3.05;;;;;;;18.08;76.36;100990.16;2081340;28;20517;-71
2022/07/08 02:54:29;;;;;;;4.15;2.67;;;;;;;18.08;76.29;100987.44;2089359;28;20667;-71
2022/07/08 02:55:31;;;;;;;6.05;2.75;;;;;;;18.09;76.39;100991.75;2097313;28;20056;-71
2022/07/08 02:56:39;;;;;;;6.13;2.90;;;;;;;18.10;76.25;100987.13;2080746;28;20049;-71
2022/07/08 02:57:43;;;;;;;3.90;2.90;;;;;;;18.10;76.32;100989.84;2078316;28;20042;-72
2022/07/08 02:58:48;;;;;;;5.30;3.10;;;;;;;18.10;76.37;100987.94;2080247;28;20060;-71
2022/07/08 02:59:50;;;;;;;5.57;2.80;;;;;;;18.11;76.41;101000.41;2072573;28;20054;-71
2022/07/08 03:00:55;;;;;;;4.22;2.90;;;;;;;18.12;76.30;100993.84;2080115;28;20061;-71
2022/07/08 03:01:57;;;;;;;4.82;3.20;;;;;;;18.12;76.34;100991.13;2093409;28;20047;-71
2022/07/08 03:03:00;;;;;;;3.47;3.15;;;;;;;18.13;76.29;100998.19;2080729;28;20046;-72
2022/07/08 03:04:04;;;;;;;4.63;3.10;;;;;;;18.14;76.28;100993.53;2073165;28;20077;-71
2022/07/08 03:05:06;;;;;;;4.75;2.60;;;;;;;18.15;76.25;100992.41;2089617;28;20049;-71
2022/07/08 03:06:10;;;;;;;4.65;2.90;;;;;;;18.16;76.37;100996.72;2097818;28;20039;-71
2022/07/08 03:07:15;;;;;;;5.57;3.20;;;;;;;18.16;76.28;101000.28;2088841;28;20029;-72
2022/07/08 03:08:19;;;;;;;7.60;2.88;;;;;;;18.17;76.32;101001.06;2089412;28;20032;-72
2022/07/08 03:09:23;;;;;;;4.30;2.78;;;;;;;18.18;76.20;101008.91;2080072;28;20034;-71
2022/07/08 03:10:25;;;;;;;6.25;3.03;;;;;;;18.18;76.37;101006.19;2080089;28;20064;-72
2022/07/08 03:11:32;;;;;;;4.88;2.85;;;;;;;18.20;76.23;101009.38;2088351;28;20055;-71
2022/07/08 03:12:34;;;;;;;3.10;2.78;;;;;;;18.19;76.43;101010.53;2081321;28;20056;-71
2022/07/08 03:13:36;;;;;;;3.35;2.80;;;;;;;18.20;76.40;101003.94;2088850;28;20415;-70
2022/07/08 03:14:43;;;;;;;3.67;2.78;;;;;;;18.20;76.50;101006.66;2079927;28;20463;-71
2022/07/08 03:15:49;;;;;;;3.63;2.60;;;;;;;18.22;76.37;101001.72;2081401;28;20053;-71
2022/07/08 03:16:53;;;;;;;5.55;3.08;;;;;;;18.23;76.41;101007.97;2079080;28;20037;-71
2022/07/08 03:17:57;;;;;;;5.80;2.95;;;;;;;18.25;76.54;101011.13;2073971;28;20506;-71
2022/07/08 03:19:01;;;;;;;4.82;2.65;;;;;;;18.25;76.41;101006.53;2080708;28;20057;-71
2022/07/08 03:20:06;;;;;;;3.65;2.90;;;;;;;18.25;76.44;101006.53;2089585;28;20523;-71
2022/07/08 03:21:11;;;;;;;5.15;3.30;;;;;;;18.26;76.48;101013.56;2096730;28;20040;-71
2022/07/08 03:22:18;;;;;;;4.93;2.90;;;;;;;18.26;76.55;101013.56;2072334;28;20042;-72
2022/07/08 03:23:22;;;;;;;3.85;2.78;;;;;;;18.26;76.55;101010.84;2072363;28;20050;-71
2022/07/08 03:24:24;;;;;;;4.97;3.08;;;;;;;18.28;76.64;101011.34;2080546;28;20045;-71
2022/07/08 03:25:29;;;;;;;5.07;2.80;;;;;;;18.28;76.68;101011.34;2072299;28;20065;-71
2022/07/08 03:26:37;;;;;;;4.57;2.95;;;;;;;18.30;76.59;101013.72;2081317;28;20049;-71
2022/07/08 03:27:48;;;;;;;5.88;2.95;;;;;;;18.32;76.59;101010.69;2080404;28;20037;-70
2022/07/08 03:28:50;;;;;;;4.32;3.13;;;;;;;18.34;76.57;101014.66;2072751;28;20394;-70
2022/07/08 03:29:51;;;;;;;8.85;3.10;;;;;;;18.33;76.65;101012.28;2072489;28;20520;-71
2022/07/08 03:30:55;;;;;;;5.45;2.95;;;;;;;18.34;76.69;101014.66;2072944;28;20534;-71
2022/07/08 03:31:57;;;;;;;4.35;3.10;;;;;;;18.35;76.49;101013.56;2096380;28;20512;-71
2022/07/08 03:33:01;;;;;;;4.53;3.03;;;;;;;18.37;76.64;101014.03;2088539;28;20432;-69
2022/07/08 03:34:02;;;;;;;8.13;3.50;;;;;;;18.39;76.53;101021.91;2089174;28;20036;-70
2022/07/08 03:35:08;;;;;;;7.70;3.13;;;;;;;18.39;76.38;101019.19;2096545;28;20055;-70
2022/07/08 03:36:11;;;;;;;4.38;3.00;;;;;;;18.40;76.64;101013.41;2088742;28;20477;-71
2022/07/08 03:37:16;;;;;;;4.78;3.00;;;;;;;18.41;76.56;101011.47;2080563;28;20052;-71
2022/07/08 03:38:19;;;;;;;5.22;3.00;;;;;;;18.43;76.61;101010.03;2086668;28;20040;-71
2022/07/08 03:39:21;;;;;;;3.40;2.70;;;;;;;18.45;76.58;101009.72;2080215;28;20728;-71
2022/07/08 03:41:48;;;;;;;6.53;2.97;;;;;;;18.45;76.77;101009.72;2080216;28;20045;-71
2022/07/08 03:42:51;;;;;;;4.25;3.03;;;;;;;18.47;76.76;101007.47;2083772;28;20055;-71
2022/07/08 03:43:54;;;;;;;7.72;3.28;;;;;;;18.48;76.58;101012.59;2088038;28;20051;-71
2022/07/08 03:44:58;;;;;;;4.25;2.92;;;;;;;18.52;76.56;101012.75;2072202;28;20541;-71
2022/07/08 03:46:00;;;;;;;4.70;3.03;;;;;;;18.54;76.48;101013.25;2072529;28;20121;-71
2022/07/08 03:47:04;;;;;;;7.10;3.00;;;;;;;18.54;76.50;101013.25;2087635;28;20045;-71
2022/07/08 03:48:06;;;;;;;4.75;2.92;;;;;;;18.57;76.51;101017.22;2079247;28;20044;-71
2022/07/08 03:49:10;;;;;;;7.00;2.90;;;;;;;18.59;76.54;101015.00;2081222;28;20156;-71
2022/07/08 03:50:12;;;;;;;5.43;3.17;;;;;;;18.50;76.87;101010.34;2097478;28;20029;-70
2022/07/08 03:51:16;;;;;;;9.40;3.28;;;;;;;18.57;76.94;101011.78;2097545;28;20047;-70
2022/07/08 03:52:18;;;;;;;5.32;3.08;;;;;;;18.60;76.61;101017.41;2087770;28;20044;-70
2022/07/08 03:53:22;;;;;;;4.80;2.95;;;;;;;18.64;76.59;101012.13;2088348;28;20049;-71
2022/07/08 03:54:25;;;;;;;4.20;3.17;;;;;;;18.67;76.54;101011.47;2073047;28;20037;-71
2022/07/08 03:55:27;;;;;;;4.47;3.25;;;;;;;18.70;76.47;101014.34;2065020;28;20037;-71
2022/07/08 03:56:32;;;;;;;4.75;3.30;;;;;;;18.88;76.22;101006.19;2080511;28;20037;-72
2022/07/08 03:57:34;;;;;;;5.03;2.83;;;;;;;18.95;76.13;101020.13;2092208;28;20039;-72
2022/07/08 03:58:36;;;;;;;6.97;3.83;;;;;;;18.96;76.06;101013.53;2087461;28;20068;-73
2022/07/08 03:59:40;;;;;;;5.55;2.80;;;;;;;18.98;75.87;101019.47;2088633;28;20053;-72
2022/07/08 04:00:43;;;;;;;6.82;3.10;;;;;;;19.06;75.73;101015.91;2097359;28;20202;-73
2022/07/08 04:01:48;;;;;;;5.28;2.88;;;;;;;19.10;75.58;101019.59;2088481;28;20401;-71
2022/07/08 04:02:50;;;;;;;7.57;2.97;;;;;;;19.18;75.36;101021.50;2072012;28;20509;-73
2022/07/08 04:03:54;;;;;;;5.28;2.90;;;;;;;19.21;75.40;101015.41;2073814;28;20060;-74
2022/07/08 04:04:58;;;;;;;5.07;3.08;;;;;;;19.27;74.95;101017.97;2087883;28;20064;-75
2022/07/08 04:06:00;;;;;;;5.18;2.70;;;;;;;19.40;74.89;101016.94;2089374;28;20041;-75
2022/07/08 04:07:04;;;;;;;6.78;3.30;;;;;;;19.47;74.50;101014.50;2080096;28;20037;-74
2022/07/08 04:08:09;;;;;;;4.65;3.15;;;;;;;19.64;74.21;101019.94;2080175;28;20045;-74
2022/07/08 04:09:10;;;;;;;4.95;2.70;;;;;;;19.84;73.77;101020.31;2080097;28;20492;-74
2022/07/08 04:10:15;;;;;;;5.18;2.92;;;;;;;19.93;73.50;101018.31;2064664;28;20041;-74
2022/07/08 04:11:19;;;;;;;4.03;2.80;;;;;;;20.06;73.03;101022.72;2081262;28;20478;-72
2022/07/08 04:12:21;;;;;;;5.63;2.78;;;;;;;20.01;72.90;101031.09;2086582;28;20037;-72
2022/07/08 04:13:28;;;;;;;5.65;3.17;;;;;;;19.97;72.86;101030.16;2080711;28;20124;-72
2022/07/08 04:14:32;;;;;;;5.68;2.75;;;;;;;19.93;72.79;101028.44;2064167;28;20035;-71
2022/07/08 04:15:36;;;;;;;6.60;2.60;;;;;;;19.86;72.53;101034.41;2065105;28;20058;-73
2022/07/08 04:16:40;;;;;;;3.13;2.40;;;;;;;19.82;72.73;101033.47;2093749;28;20416;-71
2022/07/08 04:17:48;;;;;;;5.05;2.75;;;;;;;19.79;72.93;101039.56;2097386;28;20040;-73
2022/07/08 04:18:50;;;;;;;4.65;2.75;;;;;;;19.74;72.64;101032.38;2087881;28;20041;-73
2022/07/08 04:19:52;;;;;;;4.75;2.70;;;;;;;19.72;72.99;101039.28;2080029;28;20056;-72
2022/07/08 04:20:55;;;;;;;6.55;3.70;;;;;;;19.68;72.90;101045.41;2085473;28;20048;-73
2022/07/08 04:21:59;;;;;;;4.78;2.90;;;;;;;19.65;73.12;101039.81;2083224;28;20037;-72
2022/07/08 04:23:05;;;;;;;4.93;3.03;;;;;;;19.63;73.06;101031.91;2071136;28;20046;-72
2022/07/08 04:24:11;;;;;;;4.72;3.33;;;;;;;19.64;73.10;101043.66;2073267;28;20045;-73
2022/07/08 04:25:14;;;;;;;5.82;2.70;;;;;;;19.62;73.08;101030.31;2084515;28;20041;-72
2022/07/08 04:26:19;;;;;;;5.03;2.50;;;;;;;19.61;73.18;101031.47;2096033;28;20393;-72
2022/07/08 04:27:22;;;;;;;3.20;2.55;;;;;;;19.61;73.15;101034.19;2095323;28;20058;-72
2022/07/08 04:28:24;;;;;;;5.32;2.80;;;;;;;19.63;72.99;101037.38;2093046;28;20037;-73
2022/07/08 04:29:28;;;;;;;4.32;2.78;;;;;;;19.66;73.16;101038.69;2089881;28;20052;-73
2022/07/08 04:30:33;;;;;;;4.35;2.55;;;;;;;19.73;73.02;101038.16;2090172;28;20398;-73
2022/07/08 04:31:35;;;;;;;2.92;2.53;;;;;;;19.82;72.80;101034.25;2096525;28;20056;-72
2022/07/08 04:32:36;;;;;;;4.25;2.67;;;;;;;19.84;72.79;101032.00;2089853;28;20049;-72
2022/07/08 04:33:41;;;;;;;3.25;2.35;;;;;;;19.82;72.72;101034.25;2085118;28;20057;-71
2022/07/08 04:34:51;;;;;;;3.70;2.60;;;;;;;19.81;72.38;101031.88;2086969;28;20040;-71
2022/07/08 04:35:53;;;;;;;5.43;2.70;;;;;;;19.83;72.70;101029.59;2084292;28;20037;-71
2022/07/08 04:36:55;;;;;;;10.82;3.10;;;;;;;19.87;72.64;101038.75;2084416;28;20061;-71
2022/07/08 04:38:01;;;;;;;6.38;2.65;;;;;;;19.86;72.59;101035.22;2089361;28;20056;-71
2022/07/08 04:39:08;;;;;;;3.97;2.25;;;;;;;19.84;72.79;101031.22;2089741;28;20041;-71
2022/07/08 04:40:13;;;;;;;5.05;2.72;;;;;;;19.87;72.79;101030.56;2081951;28;20485;-71
2022/07/08 04:41:20;;;;;;;4.20;2.60;;;;;;;19.78;72.84;101041.50;2081414;28;20532;-71
2022/07/08 04:42:22;;;;;;;4.95;2.60;;;;;;;19.78;73.02;101038.00;2082621;28;20124;-66
2022/07/08 04:43:26;;;;;;;4.18;2.75;;;;;;;19.76;72.80;101032.03;2073437;28;20042;-66
2022/07/08 04:44:29;;;;;;;4.05;2.50;;;;;;;19.71;73.19;101033.03;2074526;28;20468;-66
2022/07/08 04:45:36;;;;;;;4.10;2.65;;;;;;;19.68;73.35;101036.44;2081582;28;20048;-66
2022/07/08 04:46:38;;;;;;;4.03;2.42;;;;;;;19.68;73.43;101039.94;2080060;28;20041;-65
2022/07/08 04:47:41;;;;;;;4.72;2.65;;;;;;;19.66;73.58;101041.41;2081279;28;20041;-66
2022/07/08 04:48:45;;;;;;;4.28;2.50;;;;;;;19.59;73.98;101041.88;2073916;28;20046;-67
2022/07/08 04:49:48;;;;;;;5.45;2.00;;;;;;;19.57;74.02;101043.34;2061505;28;20054;-66
2022/07/08 04:50:50;;;;;;;4.15;2.58;;;;;;;19.55;74.08;101038.22;2062246;28;20053;-67
2022/07/08 04:51:56;;;;;;;4.80;2.58;;;;;;;19.56;74.09;101037.09;2069009;28;20038;-67
2022/07/08 04:52:58;;;;;;;5.93;2.50;;;;;;;19.54;73.99;101047.50;2063460;28;20034;-67
2022/07/08 04:54:04;;;;;;;3.38;2.40;;;;;;;19.54;74.20;101050.25;2077766;28;20045;-67
2022/07/08 04:55:27;;;;;;;4.90;2.33;;;;;;;19.50;74.10;101049.31;2081054;28;20355;-67
2022/07/08 04:56:31;;;;;;;5.43;2.50;;;;;;;19.44;74.47;101045.16;2085270;28;20041;-67
2022/07/08 04:57:36;;;;;;;4.75;2.50;;;;;;;19.43;74.53;101055.25;2089539;28;20048;-67
2022/07/08 04:58:38;;;;;;;6.10;2.85;;;;;;;19.43;74.40;101052.53;2088578;28;20064;-66
2022/07/08 04:59:42;;;;;;;4.70;2.67;;;;;;;19.38;74.92;101051.91;2083414;28;20045;-66
2022/07/08 05:00:49;;;;;;;6.95;2.60;;;;;;;19.33;74.83;101055.63;2061701;28;20068;-67